臺北飛航情報區 - 掃描席(區管/近場)

METAR RCTP 050900Z 23011KT 9999 FEW020 34/26 Q1005 NOSIG RMK A2970=

站台狀態:Online
最後更新:2020-07-05 17:00:01